sensor_id;sensor_type;location;lat;lon;timestamp;pressure;altitude;pressure_sealevel;temperature;humidity
11099;BME280;12223;42.650;23.364;2023-02-28T00:00:38;94924.03;;;6.45;100.00
11099;BME280;12223;42.650;23.364;2023-02-28T00:03:05;94924.19;;;6.37;100.00
11099;BME280;12223;42.650;23.364;2023-02-28T00:05:33;94916.84;;;6.26;100.00
11099;BME280;12223;42.650;23.364;2023-02-28T00:08:00;94916.06;;;6.32;100.00
11099;BME280;12223;42.650;23.364;2023-02-28T00:10:29;94904.81;;;6.38;100.00
11099;BME280;12223;42.650;23.364;2023-02-28T00:13:00;94893.53;;;6.37;100.00
11099;BME280;12223;42.650;23.364;2023-02-28T00:15:27;94874.88;;;6.04;100.00
11099;BME280;12223;42.650;23.364;2023-02-28T00:17:54;94916.31;;;6.37;100.00
11099;BME280;12223;42.650;23.364;2023-02-28T00:20:21;94899.13;;;6.34;100.00
11099;BME280;12223;42.650;23.364;2023-02-28T00:22:50;94906.28;;;6.47;100.00
11099;BME280;12223;42.650;23.364;2023-02-28T00:25:19;94915.91;;;6.40;100.00
11099;BME280;12223;42.650;23.364;2023-02-28T00:27:52;94898.66;;;6.52;100.00
11099;BME280;12223;42.650;23.364;2023-02-28T00:30:32;94918.03;;;6.51;100.00
11099;BME280;12223;42.650;23.364;2023-02-28T00:32:59;94920.03;;;6.49;100.00
11099;BME280;12223;42.650;23.364;2023-02-28T00:35:50;94922.03;;;6.47;100.00
11099;BME280;12223;42.650;23.364;2023-02-28T00:38:26;94908.97;;;6.26;100.00
11099;BME280;12223;42.650;23.364;2023-02-28T00:40:56;94906.06;;;6.21;100.00
11099;BME280;12223;42.650;23.364;2023-02-28T00:43:25;94874.94;;;5.90;100.00
11099;BME280;12223;42.650;23.364;2023-02-28T00:45:52;94850.38;;;5.91;100.00
11099;BME280;12223;42.650;23.364;2023-02-28T00:48:22;94840.97;;;5.82;100.00
11099;BME280;12223;42.650;23.364;2023-02-28T00:50:50;94831.81;;;5.71;100.00
11099;BME280;12223;42.650;23.364;2023-02-28T00:53:18;94819.00;;;5.83;100.00
11099;BME280;12223;42.650;23.364;2023-02-28T00:55:49;94819.97;;;5.75;100.00
11099;BME280;12223;42.650;23.364;2023-02-28T00:58:18;94814.91;;;5.74;100.00
11099;BME280;12223;42.650;23.364;2023-02-28T01:00:47;94837.16;;;5.84;100.00
11099;BME280;12223;42.650;23.364;2023-02-28T01:03:15;94831.09;;;5.98;100.00
11099;BME280;12223;42.650;23.364;2023-02-28T01:05:45;94830.56;;;5.88;100.00
11099;BME280;12223;42.650;23.364;2023-02-28T01:08:13;94837.44;;;5.68;100.00
11099;BME280;12223;42.650;23.364;2023-02-28T01:10:40;94836.41;;;5.69;100.00
11099;BME280;12223;42.650;23.364;2023-02-28T01:13:09;94823.94;;;5.71;100.00
11099;BME280;12223;42.650;23.364;2023-02-28T01:15:36;94823.47;;;5.61;100.00
11099;BME280;12223;42.650;23.364;2023-02-28T01:18:04;94823.28;;;5.62;100.00
11099;BME280;12223;42.650;23.364;2023-02-28T01:20:31;94817.34;;;5.54;100.00
11099;BME280;12223;42.650;23.364;2023-02-28T01:22:58;94807.75;;;5.61;100.00
11099;BME280;12223;42.650;23.364;2023-02-28T01:25:25;94800.25;;;5.58;100.00
11099;BME280;12223;42.650;23.364;2023-02-28T01:27:52;94801.38;;;5.49;100.00
11099;BME280;12223;42.650;23.364;2023-02-28T01:30:19;94799.81;;;5.33;100.00
11099;BME280;12223;42.650;23.364;2023-02-28T01:32:46;94792.13;;;5.32;100.00
11099;BME280;12223;42.650;23.364;2023-02-28T01:35:18;94793.63;;;5.19;100.00
11099;BME280;12223;42.650;23.364;2023-02-28T01:37:45;94737.34;;;5.09;100.00
11099;BME280;12223;42.650;23.364;2023-02-28T01:40:24;94766.22;;;5.37;100.00
11099;BME280;12223;42.650;23.364;2023-02-28T01:42:51;94769.94;;;5.28;100.00
11099;BME280;12223;42.650;23.364;2023-02-28T01:45:21;94789.13;;;5.49;100.00
11099;BME280;12223;42.650;23.364;2023-02-28T01:47:52;94796.34;;;5.47;100.00
11099;BME280;12223;42.650;23.364;2023-02-28T01:50:27;94787.66;;;5.68;100.00
11099;BME280;12223;42.650;23.364;2023-02-28T01:53:02;94803.69;;;5.80;100.00
11099;BME280;12223;42.650;23.364;2023-02-28T01:55:32;94817.91;;;5.92;100.00
11099;BME280;12223;42.650;23.364;2023-02-28T01:58:04;94836.56;;;6.03;100.00
11099;BME280;12223;42.650;23.364;2023-02-28T02:00:36;94851.75;;;6.15;100.00
11099;BME280;12223;42.650;23.364;2023-02-28T02:03:11;94863.13;;;6.22;100.00
11099;BME280;12223;42.650;23.364;2023-02-28T02:05:41;94824.94;;;5.70;100.00
11099;BME280;12223;42.650;23.364;2023-02-28T02:08:22;94905.81;;;6.37;100.00
11099;BME280;12223;42.650;23.364;2023-02-28T02:10:54;94913.28;;;6.40;100.00
11099;BME280;12223;42.650;23.364;2023-02-28T02:13:39;94923.41;;;6.43;100.00
11099;BME280;12223;42.650;23.364;2023-02-28T02:16:23;94942.19;;;6.46;100.00
11099;BME280;12223;42.650;23.364;2023-02-28T02:19:29;94945.69;;;6.54;100.00
11099;BME280;12223;42.650;23.364;2023-02-28T02:22:15;94950.53;;;6.50;100.00
11099;BME280;12223;42.650;23.364;2023-02-28T02:25:03;94957.28;;;6.38;100.00
11099;BME280;12223;42.650;23.364;2023-02-28T02:27:48;94913.22;;;6.05;100.00
11099;BME280;12223;42.650;23.364;2023-02-28T02:33:42;94938.53;;;6.20;100.00
11099;BME280;12223;42.650;23.364;2023-02-28T02:36:33;94943.97;;;6.39;100.00
11099;BME280;12223;42.650;23.364;2023-02-28T02:39:08;94947.41;;;6.40;100.00
11099;BME280;12223;42.650;23.364;2023-02-28T02:41:46;94944.78;;;6.40;100.00
11099;BME280;12223;42.650;23.364;2023-02-28T02:44:19;94957.13;;;6.46;100.00
11099;BME280;12223;42.650;23.364;2023-02-28T02:46:48;94952.34;;;6.50;100.00
11099;BME280;12223;42.650;23.364;2023-02-28T02:49:21;94951.41;;;6.57;100.00
11099;BME280;12223;42.650;23.364;2023-02-28T02:51:51;94955.66;;;6.65;100.00
11099;BME280;12223;42.650;23.364;2023-02-28T02:54:23;94964.97;;;6.67;100.00
11099;BME280;12223;42.650;23.364;2023-02-28T02:56:55;94978.13;;;6.46;100.00
11099;BME280;12223;42.650;23.364;2023-02-28T02:59:24;94968.59;;;6.17;100.00
11099;BME280;12223;42.650;23.364;2023-02-28T03:02:10;94958.41;;;6.29;100.00
11099;BME280;12223;42.650;23.364;2023-02-28T03:04:42;94907.75;;;5.86;100.00
11099;BME280;12223;42.650;23.364;2023-02-28T03:07:17;94957.78;;;6.27;100.00
11099;BME280;12223;42.650;23.364;2023-02-28T03:09:50;94954.78;;;6.30;100.00
11099;BME280;12223;42.650;23.364;2023-02-28T03:12:18;94957.00;;;6.33;100.00
11099;BME280;12223;42.650;23.364;2023-02-28T03:14:55;94965.03;;;6.25;100.00
11099;BME280;12223;42.650;23.364;2023-02-28T03:17:37;94960.34;;;6.20;100.00
11099;BME280;12223;42.650;23.364;2023-02-28T03:20:17;94951.53;;;6.28;100.00
11099;BME280;12223;42.650;23.364;2023-02-28T03:22:57;94960.03;;;6.30;100.00
11099;BME280;12223;42.650;23.364;2023-02-28T03:25:33;94953.56;;;6.26;100.00
11099;BME280;12223;42.650;23.364;2023-02-28T03:28:09;94972.00;;;6.39;100.00
11099;BME280;12223;42.650;23.364;2023-02-28T03:30:44;94977.88;;;6.41;100.00
11099;BME280;12223;42.650;23.364;2023-02-28T03:33:16;94969.78;;;6.36;100.00
11099;BME280;12223;42.650;23.364;2023-02-28T03:35:52;94981.66;;;6.32;100.00
11099;BME280;12223;42.650;23.364;2023-02-28T03:38:25;94974.56;;;6.11;100.00
11099;BME280;12223;42.650;23.364;2023-02-28T03:40:58;94974.13;;;6.07;100.00
11099;BME280;12223;42.650;23.364;2023-02-28T03:43:29;94966.81;;;6.03;100.00
11099;BME280;12223;42.650;23.364;2023-02-28T03:46:01;94957.53;;;6.00;100.00
11099;BME280;12223;42.650;23.364;2023-02-28T03:48:37;94956.78;;;6.07;100.00
11099;BME280;12223;42.650;23.364;2023-02-28T03:51:06;94937.50;;;5.93;100.00
11099;BME280;12223;42.650;23.364;2023-02-28T03:53:40;94964.34;;;5.80;100.00
11099;BME280;12223;42.650;23.364;2023-02-28T03:56:13;94915.75;;;5.42;100.00
11099;BME280;12223;42.650;23.364;2023-02-28T03:58:48;94933.63;;;5.38;100.00
11099;BME280;12223;42.650;23.364;2023-02-28T04:01:20;94880.97;;;4.97;100.00
11099;BME280;12223;42.650;23.364;2023-02-28T04:03:49;94912.88;;;5.37;100.00
11099;BME280;12223;42.650;23.364;2023-02-28T04:06:18;94904.72;;;5.32;100.00
11099;BME280;12223;42.650;23.364;2023-02-28T04:08:47;94860.19;;;5.10;100.00
11099;BME280;12223;42.650;23.364;2023-02-28T04:11:21;94862.72;;;5.18;100.00
11099;BME280;12223;42.650;23.364;2023-02-28T04:13:48;94870.28;;;5.13;100.00
11099;BME280;12223;42.650;23.364;2023-02-28T04:16:15;94868.31;;;5.01;100.00
11099;BME280;12223;42.650;23.364;2023-02-28T04:18:43;94852.00;;;4.99;100.00
11099;BME280;12223;42.650;23.364;2023-02-28T04:21:10;94849.66;;;5.04;100.00
11099;BME280;12223;42.650;23.364;2023-02-28T04:23:39;94842.22;;;5.07;100.00
11099;BME280;12223;42.650;23.364;2023-02-28T04:26:07;94843.41;;;5.05;100.00
11099;BME280;12223;42.650;23.364;2023-02-28T04:28:37;94811.84;;;4.92;100.00
11099;BME280;12223;42.650;23.364;2023-02-28T04:31:08;94831.41;;;5.10;100.00
11099;BME280;12223;42.650;23.364;2023-02-28T04:33:35;94832.00;;;5.12;100.00
11099;BME280;12223;42.650;23.364;2023-02-28T04:36:04;94830.28;;;5.19;100.00
11099;BME280;12223;42.650;23.364;2023-02-28T04:38:33;94826.59;;;5.14;100.00
11099;BME280;12223;42.650;23.364;2023-02-28T04:41:03;94848.00;;;5.17;100.00
11099;BME280;12223;42.650;23.364;2023-02-28T04:43:32;94853.34;;;5.09;100.00
11099;BME280;12223;42.650;23.364;2023-02-28T04:46:01;94845.88;;;5.28;100.00
11099;BME280;12223;42.650;23.364;2023-02-28T04:48:31;94871.31;;;5.34;100.00
11099;BME280;12223;42.650;23.364;2023-02-28T04:51:00;94862.72;;;5.18;100.00
11099;BME280;12223;42.650;23.364;2023-02-28T04:53:27;94863.31;;;5.20;100.00
11099;BME280;12223;42.650;23.364;2023-02-28T04:55:54;94858.19;;;5.12;100.00
11099;BME280;12223;42.650;23.364;2023-02-28T04:58:21;94870.09;;;5.15;100.00
11099;BME280;12223;42.650;23.364;2023-02-28T05:00:50;94866.16;;;5.04;100.00
11099;BME280;12223;42.650;23.364;2023-02-28T05:03:17;94866.16;;;5.04;100.00
11099;BME280;12223;42.650;23.364;2023-02-28T05:05:46;94867.25;;;5.10;100.00
11099;BME280;12223;42.650;23.364;2023-02-28T05:08:13;94870.38;;;5.20;100.00
11099;BME280;12223;42.650;23.364;2023-02-28T05:10:39;94864.84;;;5.30;100.00
11099;BME280;12223;42.650;23.364;2023-02-28T05:13:10;94849.81;;;5.17;100.00
11099;BME280;12223;42.650;23.364;2023-02-28T05:15:38;94863.97;;;5.22;100.00
11099;BME280;12223;42.650;23.364;2023-02-28T05:18:08;94864.84;;;5.30;100.00
11099;BME280;12223;42.650;23.364;2023-02-28T05:20:35;94870.59;;;5.40;100.00
11099;BME280;12223;42.650;23.364;2023-02-28T05:23:03;94867.34;;;5.38;100.00
11099;BME280;12223;42.650;23.364;2023-02-28T05:25:30;94885.81;;;5.51;100.00
11099;BME280;12223;42.650;23.364;2023-02-28T05:27:59;94896.94;;;5.53;100.00
11099;BME280;12223;42.650;23.364;2023-02-28T05:30:26;94904.38;;;5.71;100.00
11099;BME280;12223;42.650;23.364;2023-02-28T05:32:53;94901.22;;;5.75;100.00
11099;BME280;12223;42.650;23.364;2023-02-28T05:35:21;94924.94;;;5.88;100.00
11099;BME280;12223;42.650;23.364;2023-02-28T05:37:48;94935.31;;;5.96;100.00
11099;BME280;12223;42.650;23.364;2023-02-28T05:40:15;94955.09;;;5.99;100.00
11099;BME280;12223;42.650;23.364;2023-02-28T05:42:44;94971.06;;;6.04;100.00
11099;BME280;12223;42.650;23.364;2023-02-28T05:45:11;94983.75;;;6.00;100.00
11099;BME280;12223;42.650;23.364;2023-02-28T05:47:39;95008.84;;;6.10;100.00
11099;BME280;12223;42.650;23.364;2023-02-28T05:50:07;95035.44;;;6.07;100.00
11099;BME280;12223;42.650;23.364;2023-02-28T05:52:37;95041.69;;;6.05;100.00
11099;BME280;12223;42.650;23.364;2023-02-28T05:55:04;95057.59;;;6.04;100.00
11099;BME280;12223;42.650;23.364;2023-02-28T05:57:32;95074.13;;;6.04;100.00
11099;BME280;12223;42.650;23.364;2023-02-28T05:59:59;95077.84;;;6.10;100.00
11099;BME280;12223;42.650;23.364;2023-02-28T06:02:26;95076.19;;;6.09;100.00
11099;BME280;12223;42.650;23.364;2023-02-28T06:04:53;95064.31;;;5.92;100.00
11099;BME280;12223;42.650;23.364;2023-02-28T06:07:20;95068.44;;;5.86;100.00
11099;BME280;12223;42.650;23.364;2023-02-28T06:09:49;95050.19;;;5.78;100.00
11099;BME280;12223;42.650;23.364;2023-02-28T06:12:16;95055.69;;;5.83;100.00
11099;BME280;12223;42.650;23.364;2023-02-28T06:14:43;95038.19;;;5.69;100.00
11099;BME280;12223;42.650;23.364;2023-02-28T06:17:10;95016.53;;;5.60;100.00
11099;BME280;12223;42.650;23.364;2023-02-28T06:19:39;95016.34;;;5.62;100.00
11099;BME280;12223;42.650;23.364;2023-02-28T06:22:06;95027.00;;;5.75;100.00
11099;BME280;12223;42.650;23.364;2023-02-28T06:24:33;95003.75;;;5.72;100.00
11099;BME280;12223;42.650;23.364;2023-02-28T06:27:02;95004.91;;;5.84;100.00
11099;BME280;12223;42.650;23.364;2023-02-28T06:29:30;95004.03;;;5.92;100.00
11099;BME280;12223;42.650;23.364;2023-02-28T06:31:57;95008.66;;;6.11;100.00
11099;BME280;12223;42.650;23.364;2023-02-28T06:34:24;95010.47;;;6.11;100.00
11099;BME280;12223;42.650;23.364;2023-02-28T06:36:51;95017.59;;;6.17;100.00
11099;BME280;12223;42.650;23.364;2023-02-28T06:39:19;95001.03;;;6.16;100.00
11099;BME280;12223;42.650;23.364;2023-02-28T06:41:46;95023.22;;;6.35;100.00
11099;BME280;12223;42.650;23.364;2023-02-28T06:44:17;95039.06;;;6.27;100.00
11099;BME280;12223;42.650;23.364;2023-02-28T06:46:47;95056.91;;;6.31;100.00
11099;BME280;12223;42.650;23.364;2023-02-28T06:49:15;95059.25;;;6.26;100.00
11099;BME280;12223;42.650;23.364;2023-02-28T06:51:44;95056.63;;;6.26;100.00
11099;BME280;12223;42.650;23.364;2023-02-28T06:54:12;95060.53;;;6.16;100.00
11099;BME280;12223;42.650;23.364;2023-02-28T06:56:39;95039.88;;;6.06;100.00
11099;BME280;12223;42.650;23.364;2023-02-28T06:59:08;95056.38;;;6.21;100.00
11099;BME280;12223;42.650;23.364;2023-02-28T07:01:36;95057.88;;;6.30;100.00
11099;BME280;12223;42.650;23.364;2023-02-28T07:04:05;95052.31;;;6.40;100.00
11099;BME280;12223;42.650;23.364;2023-02-28T07:06:35;95050.50;;;6.40;100.00
11099;BME280;12223;42.650;23.364;2023-02-28T07:09:03;95069.47;;;6.57;100.00
11099;BME280;12223;42.650;23.364;2023-02-28T07:11:30;95096.19;;;6.46;100.00
11099;BME280;12223;42.650;23.364;2023-02-28T07:13:57;95099.50;;;6.55;100.00
11099;BME280;12223;42.650;23.364;2023-02-28T07:16:25;95110.25;;;6.60;100.00
11099;BME280;12223;42.650;23.364;2023-02-28T07:18:54;95105.56;;;6.55;100.00
11099;BME280;12223;42.650;23.364;2023-02-28T07:21:21;95109.44;;;6.59;100.00
11099;BME280;12223;42.650;23.364;2023-02-28T07:23:48;95101.38;;;6.61;100.00
11099;BME280;12223;42.650;23.364;2023-02-28T07:26:18;95109.75;;;6.50;100.00
11099;BME280;12223;42.650;23.364;2023-02-28T07:28:47;95083.53;;;6.50;100.00
11099;BME280;12223;42.650;23.364;2023-02-28T07:31:15;95098.06;;;6.73;100.00
11099;BME280;12223;42.650;23.364;2023-02-28T07:33:43;95102.81;;;6.84;100.00
11099;BME280;12223;42.650;23.364;2023-02-28T07:36:13;95097.50;;;6.78;100.00
11099;BME280;12223;42.650;23.364;2023-02-28T07:38:44;95107.50;;;7.10;100.00
11099;BME280;12223;42.650;23.364;2023-02-28T07:41:38;95091.06;;;7.30;100.00
11099;BME280;12223;42.650;23.364;2023-02-28T07:44:09;95121.41;;;7.60;100.00
11099;BME280;12223;42.650;23.364;2023-02-28T07:46:36;95138.13;;;7.80;100.00
11099;BME280;12223;42.650;23.364;2023-02-28T07:49:03;95150.94;;;7.90;100.00
11099;BME280;12223;42.650;23.364;2023-02-28T07:51:41;95171.69;;;8.13;100.00
11099;BME280;12223;42.650;23.364;2023-02-28T07:54:13;95192.38;;;8.22;100.00
11099;BME280;12223;42.650;23.364;2023-02-28T07:56:40;95194.22;;;8.28;100.00
11099;BME280;12223;42.650;23.364;2023-02-28T07:59:07;95193.13;;;8.44;100.00
11099;BME280;12223;42.650;23.364;2023-02-28T08:01:34;95201.25;;;8.49;100.00
11099;BME280;12223;42.650;23.364;2023-02-28T08:04:04;95220.47;;;8.50;100.00
11099;BME280;12223;42.650;23.364;2023-02-28T08:06:30;95213.66;;;8.62;100.00
11099;BME280;12223;42.650;23.364;2023-02-28T08:08:59;95225.09;;;8.82;100.00
11099;BME280;12223;42.650;23.364;2023-02-28T08:11:26;95221.09;;;9.06;100.00
11099;BME280;12223;42.650;23.364;2023-02-28T08:13:54;95233.28;;;9.13;100.00
11099;BME280;12223;42.650;23.364;2023-02-28T08:16:21;95237.69;;;9.00;100.00
11099;BME280;12223;42.650;23.364;2023-02-28T08:18:53;95192.88;;;8.86;100.00
11099;BME280;12223;42.650;23.364;2023-02-28T08:21:26;95186.78;;;8.86;100.00
11099;BME280;12223;42.650;23.364;2023-02-28T08:23:54;95182.38;;;8.93;100.00
11099;BME280;12223;42.650;23.364;2023-02-28T08:26:25;95175.94;;;9.09;100.00
11099;BME280;12223;42.650;23.364;2023-02-28T08:28:52;95178.97;;;9.12;100.00
11099;BME280;12223;42.650;23.364;2023-02-28T08:31:20;95183.03;;;9.15;100.00
11099;BME280;12223;42.650;23.364;2023-02-28T08:33:51;95197.00;;;9.09;100.00
11099;BME280;12223;42.650;23.364;2023-02-28T08:36:19;95195.16;;;9.03;100.00
11099;BME280;12223;42.650;23.364;2023-02-28T08:38:47;95175.69;;;8.97;100.00
11099;BME280;12223;42.650;23.364;2023-02-28T08:41:13;95185.63;;;8.95;100.00
11099;BME280;12223;42.650;23.364;2023-02-28T08:43:44;95193.91;;;8.92;100.00
11099;BME280;12223;42.650;23.364;2023-02-28T08:46:12;95188.28;;;9.02;100.00
11099;BME280;12223;42.650;23.364;2023-02-28T08:48:39;95188.72;;;9.32;100.00
11099;BME280;12223;42.650;23.364;2023-02-28T08:51:11;95190.16;;;9.47;100.00
11099;BME280;12223;42.650;23.364;2023-02-28T08:53:40;95221.56;;;9.16;100.00
11099;BME280;12223;42.650;23.364;2023-02-28T08:56:09;95216.44;;;9.01;100.00
11099;BME280;12223;42.650;23.364;2023-02-28T08:58:37;95210.19;;;9.15;100.00
11099;BME280;12223;42.650;23.364;2023-02-28T09:01:16;95195.81;;;9.31;100.00
11099;BME280;12223;42.650;23.364;2023-02-28T09:03:45;95223.00;;;9.51;100.00
11099;BME280;12223;42.650;23.364;2023-02-28T09:06:14;95232.34;;;9.54;100.00
11099;BME280;12223;42.650;23.364;2023-02-28T09:08:41;95247.75;;;9.44;100.00
11099;BME280;12223;42.650;23.364;2023-02-28T09:11:09;95200.41;;;8.96;100.00
11099;BME280;12223;42.650;23.364;2023-02-28T09:13:36;95215.47;;;9.15;100.00
11099;BME280;12223;42.650;23.364;2023-02-28T09:16:05;95204.91;;;9.09;100.00
11099;BME280;12223;42.650;23.364;2023-02-28T09:18:35;95188.91;;;9.37;100.00
11099;BME280;12223;42.650;23.364;2023-02-28T09:21:03;95207.81;;;9.53;100.00
11099;BME280;12223;42.650;23.364;2023-02-28T09:23:33;95227.09;;;9.74;100.00
11099;BME280;12223;42.650;23.364;2023-02-28T09:26:00;95234.59;;;9.70;100.00
11099;BME280;12223;42.650;23.364;2023-02-28T09:28:27;95243.72;;;9.74;100.00
11099;BME280;12223;42.650;23.364;2023-02-28T09:30:54;95236.81;;;9.66;100.00
11099;BME280;12223;42.650;23.364;2023-02-28T09:33:23;95241.28;;;9.53;100.00
11099;BME280;12223;42.650;23.364;2023-02-28T09:35:57;95225.84;;;9.43;100.00
11099;BME280;12223;42.650;23.364;2023-02-28T09:38:25;95213.91;;;9.67;100.00
11099;BME280;12223;42.650;23.364;2023-02-28T09:40:56;95245.56;;;9.60;100.00
11099;BME280;12223;42.650;23.364;2023-02-28T09:43:26;95242.69;;;9.88;100.00
11099;BME280;12223;42.650;23.364;2023-02-28T09:45:59;95240.06;;;10.01;100.00
11099;BME280;12223;42.650;23.364;2023-02-28T09:48:31;95262.19;;;10.00;100.00
11099;BME280;12223;42.650;23.364;2023-02-28T09:51:04;95258.94;;;9.92;100.00
11099;BME280;12223;42.650;23.364;2023-02-28T09:53:32;95253.69;;;9.85;100.00
11099;BME280;12223;42.650;23.364;2023-02-28T09:56:03;95267.44;;;9.81;100.00
11099;BME280;12223;42.650;23.364;2023-02-28T09:58:35;95258.94;;;9.72;100.00
11099;BME280;12223;42.650;23.364;2023-02-28T10:01:08;95246.13;;;9.62;100.00
11099;BME280;12223;42.650;23.364;2023-02-28T10:03:40;95246.13;;;9.49;100.00
11099;BME280;12223;42.650;23.364;2023-02-28T10:06:31;95225.03;;;9.49;100.00
11099;BME280;12223;42.650;23.364;2023-02-28T10:09:05;95240.47;;;9.79;100.00
11099;BME280;12223;42.650;23.364;2023-02-28T10:11:39;95244.94;;;9.78;100.00
11099;BME280;12223;42.650;23.364;2023-02-28T10:14:13;95251.63;;;9.74;100.00
11099;BME280;12223;42.650;23.364;2023-02-28T10:16:45;95247.97;;;9.88;100.00
11099;BME280;12223;42.650;23.364;2023-02-28T10:19:23;95243.13;;;9.98;100.00
11099;BME280;12223;42.650;23.364;2023-02-28T10:22:08;95253.69;;;9.85;100.00
11099;BME280;12223;42.650;23.364;2023-02-28T10:24:40;95255.69;;;9.90;100.00
11099;BME280;12223;42.650;23.364;2023-02-28T10:27:13;95252.06;;;9.97;100.00
11099;BME280;12223;42.650;23.364;2023-02-28T10:29:43;95247.16;;;10.07;100.00
11099;BME280;12223;42.650;23.364;2023-02-28T10:32:14;95259.78;;;9.86;100.00
11099;BME280;12223;42.650;23.364;2023-02-28T10:34:42;95253.44;;;10.00;100.00
11099;BME280;12223;42.650;23.364;2023-02-28T10:37:13;95248.41;;;10.05;100.00
11099;BME280;12223;42.650;23.364;2023-02-28T10:39:42;95223.84;;;10.11;100.00
11099;BME280;12223;42.650;23.364;2023-02-28T10:42:24;95249.75;;;10.54;100.00
11099;BME280;12223;42.650;23.364;2023-02-28T10:45:09;95246.22;;;10.79;100.00
11099;BME280;12223;42.650;23.364;2023-02-28T10:47:47;95254.69;;;10.95;100.00
11099;BME280;12223;42.650;23.364;2023-02-28T10:50:29;95252.78;;;10.57;100.00
11099;BME280;12223;42.650;23.364;2023-02-28T10:53:07;95246.22;;;10.79;100.00
11099;BME280;12223;42.650;23.364;2023-02-28T10:55:35;95244.47;;;10.60;100.00
11099;BME280;12223;42.650;23.364;2023-02-28T10:58:02;95240.66;;;10.43;100.00
11099;BME280;12223;42.650;23.364;2023-02-28T11:00:33;95232.13;;;10.41;100.00
11099;BME280;12223;42.650;23.364;2023-02-28T11:03:01;95234.78;;;10.21;100.00
11099;BME280;12223;42.650;23.364;2023-02-28T11:05:42;95217.09;;;10.35;100.00
11099;BME280;12223;42.650;23.364;2023-02-28T11:08:14;95219.84;;;10.66;100.00
11099;BME280;12223;42.650;23.364;2023-02-28T11:10:48;95230.22;;;10.68;100.00
11099;BME280;12223;42.650;23.364;2023-02-28T11:13:28;95219.06;;;10.59;100.00
11099;BME280;12223;42.650;23.364;2023-02-28T11:16:06;95221.50;;;10.61;100.00
11099;BME280;12223;42.650;23.364;2023-02-28T11:18:40;95225.94;;;10.73;100.00
11099;BME280;12223;42.650;23.364;2023-02-28T11:21:16;95216.66;;;10.51;100.00
11099;BME280;12223;42.650;23.364;2023-02-28T11:23:51;95215.03;;;10.43;100.00
11099;BME280;12223;42.650;23.364;2023-02-28T11:26:40;95214.25;;;10.43;100.00
11099;BME280;12223;42.650;23.364;2023-02-28T11:29:18;95205.06;;;10.59;100.00
11099;BME280;12223;42.650;23.364;2023-02-28T11:32:01;95201.59;;;10.58;100.00
11099;BME280;12223;42.650;23.364;2023-02-28T11:34:29;95208.88;;;10.69;100.00
11099;BME280;12223;42.650;23.364;2023-02-28T11:36:58;95223.03;;;10.81;100.00
11099;BME280;12223;42.650;23.364;2023-02-28T11:39:27;95211.09;;;10.72;100.00
11099;BME280;12223;42.650;23.364;2023-02-28T11:42:03;95217.41;;;10.65;100.00
11099;BME280;12223;42.650;23.364;2023-02-28T11:44:42;95210.00;;;10.35;100.00
11099;BME280;12223;42.650;23.364;2023-02-28T11:47:14;95199.03;;;10.25;100.00
11099;BME280;12223;42.650;23.364;2023-02-28T11:49:47;95201.16;;;10.68;100.00
11099;BME280;12223;42.650;23.364;2023-02-28T11:52:24;95193.06;;;10.56;100.00
11099;BME280;12223;42.650;23.364;2023-02-28T11:55:11;95192.41;;;10.74;100.00
11099;BME280;12223;42.650;23.364;2023-02-28T11:58:03;95201.75;;;10.70;100.00
11099;BME280;12223;42.650;23.364;2023-02-28T12:01:01;95195.91;;;10.61;100.00
11099;BME280;12223;42.650;23.364;2023-02-28T12:03:36;95208.59;;;10.91;100.00
11099;BME280;12223;42.650;23.364;2023-02-28T12:06:16;95213.34;;;10.69;100.00
11099;BME280;12223;42.650;23.364;2023-02-28T12:08:51;95189.16;;;10.72;100.00
11099;BME280;12223;42.650;23.364;2023-02-28T12:11:31;95203.66;;;10.94;100.00
11099;BME280;12223;42.650;23.364;2023-02-28T12:14:17;95210.94;;;11.12;100.00
11099;BME280;12223;42.650;23.364;2023-02-28T12:17:01;95206.59;;;11.24;100.00
11099;BME280;12223;42.650;23.364;2023-02-28T12:19:40;95207.16;;;11.26;100.00
11099;BME280;12223;42.650;23.364;2023-02-28T12:22:30;95206.06;;;11.02;100.00
11099;BME280;12223;42.650;23.364;2023-02-28T12:25:31;95206.56;;;10.86;100.00
11099;BME280;12223;42.650;23.364;2023-02-28T12:28:09;95156.19;;;10.81;100.00
11099;BME280;12223;42.650;23.364;2023-02-28T12:30:41;95222.75;;;11.03;100.00
11099;BME280;12223;42.650;23.364;2023-02-28T12:33:14;95198.75;;;10.60;100.00
11099;BME280;12223;42.650;23.364;2023-02-28T12:35:48;95201.13;;;10.81;100.00
11099;BME280;12223;42.650;23.364;2023-02-28T12:38:19;95213.50;;;10.80;100.00
11099;BME280;12223;42.650;23.364;2023-02-28T12:40:50;95207.59;;;10.85;100.00
11099;BME280;12223;42.650;23.364;2023-02-28T12:43:25;95199.81;;;10.97;100.00
11099;BME280;12223;42.650;23.364;2023-02-28T12:45:56;95208.22;;;10.80;100.00
11099;BME280;12223;42.650;23.364;2023-02-28T12:48:29;95201.75;;;10.70;100.00
11099;BME280;12223;42.650;23.364;2023-02-28T12:50:59;95201.25;;;10.93;100.00
11099;BME280;12223;42.650;23.364;2023-02-28T12:53:31;95196.63;;;10.81;100.00
11099;BME280;12223;42.650;23.364;2023-02-28T12:56:12;95187.25;;;10.92;100.00
11099;BME280;12223;42.650;23.364;2023-02-28T12:58:45;95200.84;;;11.27;100.00
11099;BME280;12223;42.650;23.364;2023-02-28T13:01:30;95191.16;;;10.76;100.00
11099;BME280;12223;42.650;23.364;2023-02-28T13:04:25;95203.47;;;10.96;100.00
11099;BME280;12223;42.650;23.364;2023-02-28T13:09:52;95188.81;;;10.62;100.00
11099;BME280;12223;42.650;23.364;2023-02-28T13:12:20;95202.38;;;10.72;100.00
11099;BME280;12223;42.650;23.364;2023-02-28T13:14:50;95159.84;;;10.35;100.00
11099;BME280;12223;42.650;23.364;2023-02-28T13:17:19;95200.34;;;10.74;100.00